Flight Track Log - Related Links

Times and Time Zones

All times are in EDT time to prevent confusion due to time zone crossing. See the DAL2278 flight status page for this flight to view local times or setup timezone preferences in your user account.

Time Position Orientation Groundspeed Altitude Reporting Facility
EDT Latitude Longitude Course Direction KTS MPH feet Rate Location/Type
Wed 09:29:00 PM 32.6120 -117.0430 103° East  Level FlightAware Approximate
Wed 09:29:00 PM 32.6333 -117.2332 90° East  Level FlightAware Approximate
Wed 09:30:00 PM 32.6062 -116.8984 84° East  Level FlightAware Approximate
Wed 09:30:24 PM 32.6653 -117.2767 90° East 225 259 10,400  Level Los Angeles Center
Wed 09:31:00 PM 32.6281 -116.7621 19° North  Level FlightAware Approximate
Wed 09:31:26 PM 32.6364 -117.1597 106° East 316 364 13,500  Level Los Angeles Center
Wed 09:32:00 PM 32.7446 -116.7139 12° North  Level FlightAware Approximate
Wed 09:32:27 PM 32.6208 -117.0522 100° East 329 379 16,600  Level Los Angeles Center
Wed 09:33:29 PM 32.6636 -116.9447 65° Northeast 385 443 19,200 2,177 Climbing Los Angeles Center
Wed 09:34:31 PM 32.7603 -116.8672 34° Northeast 411 473 21,100 1,839 Climbing Los Angeles Center
Wed 09:35:33 PM 32.8656 -116.7811 34° Northeast 447 514 23,000 1,610 Climbing Los Angeles Center
Wed 09:36:34 PM 32.9806 -116.6883 34° Northeast 486 559 24,400 1,610 Climbing Los Angeles Center
Wed 09:37:36 PM 33.1003 -116.5919 34° Northeast 505 581 26,300 1,742 Climbing Los Angeles Center
Wed 09:38:38 PM 33.2289 -116.5083 29° Northeast 518 596 28,000 1,659 Climbing Los Angeles Center
Wed 09:39:39 PM 33.3633 -116.4322 25° Northeast 529 609 29,700 1,756 Climbing Los Angeles Center
Wed 09:40:41 PM 33.4964 -116.3556 26° Northeast 530 610 31,600 2,049 Climbing Los Angeles Center
Wed 09:41:42 PM 33.6253 -116.2803 26° Northeast 519 597 33,900 2,293 Climbing Los Angeles Center
Wed 09:42:44 PM 33.7753 -116.1922 26° Northeast 502 578 36,300 1,548 Climbing Los Angeles Center
Wed 09:43:46 PM 33.8964 -116.1233 25° Northeast 486 559 37,100 677 Climbing Los Angeles Center
Wed 09:44:48 PM 34.0189 -116.0514 26° Northeast 487 560 37,700 585 Climbing Los Angeles Center
Wed 09:45:49 PM 34.1458 -115.9764 26° Northeast 496 571 38,300 634 Climbing Los Angeles Center
Wed 09:46:51 PM 34.2717 -115.9025 26° Northeast 504 580 39,000 339 Climbing Los Angeles Center
Wed 09:47:53 PM 34.3958 -115.8286 26° Northeast 499 574 39,000  Level Los Angeles Center
Wed 09:48:55 PM 34.5183 -115.7558 26° Northeast 492 566 39,000  Level Los Angeles Center
Wed 09:49:56 PM 34.6622 -115.6697 26° Northeast 483 556 39,000  Level Los Angeles Center
Wed 09:50:58 PM 34.7800 -115.5992 26° Northeast 477 549 39,000  Level Los Angeles Center
Wed 09:52:00 PM 34.8956 -115.5317 26° Northeast 473 544 39,000  Level Los Angeles Center
Wed 09:53:01 PM 35.0167 -115.4578 27° Northeast 476 548 39,000  Level Los Angeles Center
Wed 09:54:03 PM 35.1406 -115.3822 27° Northeast 492 566 39,000  Level Los Angeles Center
Wed 09:55:05 PM 35.2864 -115.2958 26° Northeast 493 567 39,000  Level Los Angeles Center
Wed 09:56:06 PM 35.4025 -115.2264 26° Northeast 475 547 39,000  Level Los Angeles Center
Wed 09:57:08 PM 35.5181 -115.1561 26° Northeast 466 536 39,000  Level Los Angeles Center
Wed 09:58:10 PM 35.6325 -115.0858 27° Northeast 463 533 39,000  Level Los Angeles Center
Wed 09:59:12 PM 35.7469 -115.0161 26° Northeast 461 531 39,000  Level Los Angeles Center
Wed 10:00:13 PM 35.8628 -114.9447 27° Northeast 465 535 39,000  Level Los Angeles Center
Wed 10:01:15 PM 35.9786 -114.8719 27° Northeast 469 540 39,000 -194 Level Los Angeles Center
Wed 10:02:17 PM 36.1136 -114.7733 31° Northeast 472 543 38,600 -677 Descending Los Angeles Center
Wed 10:03:19 PM 36.2256 -114.6894 31° Northeast 472 543 37,600 -927 Descending Los Angeles Center
Wed 10:04:20 PM 36.3381 -114.6033 32° Northeast 475 547 36,700 -927 Descending Los Angeles Center
Wed 10:05:22 PM 36.4464 -114.5206 32° Northeast 465 535 35,700 -919 Descending Los Angeles Center
Wed 10:06:24 PM 36.5525 -114.4389 32° Northeast 454 522 34,800 -927 Descending Los Angeles Center
Wed 10:07:25 PM 36.6608 -114.3561 31° Northeast 457 526 33,800 -878 Descending Los Angeles Center
Wed 10:08:27 PM 36.7936 -114.2539 32° Northeast 467 537 33,000 -387 Descending Los Angeles Center
Wed 10:09:29 PM 36.9028 -114.1692 32° Northeast 464 534 33,000  Level Los Angeles Center
Wed 10:10:31 PM 37.0131 -114.0842 32° Northeast 466 536 33,000  Level Los Angeles Center
Wed 10:11:32 PM 37.1233 -113.9989 32° Northeast 468 539 33,000  Level Los Angeles Center
Wed 10:12:08 PM 37.1942 -113.9442 32° Northeast 476 548 33,000  Level Salt Lake Center
Wed 10:13:09 PM 37.3094 -113.8528 32° Northeast 488 562 33,000  Level Salt Lake Center
Wed 10:14:11 PM 37.4256 -113.7625 32° Northeast 489 563 33,000  Level Salt Lake Center
Wed 10:15:13 PM 37.5408 -113.6722 32° Northeast 487 560 33,000  Level Salt Lake Center
Wed 10:16:14 PM 37.6558 -113.5814 32° Northeast 487 560 33,000  Level Salt Lake Center
Wed 10:17:16 PM 37.7714 -113.4889 32° Northeast 488 562 33,000  Level Salt Lake Center
Wed 10:18:17 PM 37.8878 -113.3958 32° Northeast 492 566 33,000  Level Salt Lake Center
Wed 10:19:19 PM 38.0275 -113.2831 32° Northeast 494 568 33,000  Level Salt Lake Center
Wed 10:20:20 PM 38.1453 -113.1892 32° Northeast 495 570 33,000  Level Salt Lake Center
Wed 10:21:22 PM 38.2619 -113.0936 33° Northeast 496 571 33,000  Level Salt Lake Center
Wed 10:22:23 PM 38.3806 -113.0025 31° Northeast 496 571 33,000 -293 Level Salt Lake Center
Wed 10:23:25 PM 38.5042 -112.9350 23° Northeast 487 560 32,400 -780 Descending Salt Lake Center
Wed 10:24:26 PM 38.6281 -112.8703 22° Northeast 481 554 31,400 -683 Descending Salt Lake Center
Wed 10:25:28 PM 38.7514 -112.8047 23° Northeast 479 551 31,000 -195 Descending Salt Lake Center
Wed 10:26:29 PM 38.8750 -112.7386 23° Northeast 480 552 31,000 -146 Level Salt Lake Center
Wed 10:27:31 PM 38.9989 -112.6706 23° Northeast 483 556 30,700 -677 Descending Salt Lake Center
Wed 10:28:33 PM 39.1469 -112.5889 23° Northeast 482 555 29,600 -976 Descending Salt Lake Center
Wed 10:29:34 PM 39.2525 -112.5336 22° Northeast 480 552 28,700 -1,024 Descending Salt Lake Center
Wed 10:30:36 PM 39.3978 -112.4528 23° Northeast 474 545 27,500 -1,258 Descending Salt Lake Center
Wed 10:31:38 PM 39.5144 -112.3847 24° Northeast 462 532 26,100 -1,902 Descending Salt Lake Center
Wed 10:32:39 PM 39.6247 -112.3208 24° Northeast 437 503 23,600 -2,537 Descending Salt Lake Center
Wed 10:33:41 PM 39.7319 -112.2597 24° Northeast 422 486 20,900 -2,683 Descending Salt Lake Center
Wed 10:34:42 PM 39.8414 -112.2050 21° North 408 470 18,100 -2,596 Descending Salt Lake Center
Wed 10:35:25 PM 39.9167 -112.1606 24° Northeast 390 449 16,400 -2,032 Descending Salt Lake Center
Wed 10:35:44 PM 39.9319 -112.1419 43° Northeast 390 449 16,000 -1,151 Descending Salt Lake Center
Wed 10:36:38 PM 40.0286 -112.0953 20° North 372 428 15,000 -716 Descending Salt Lake Center
Wed 10:37:33 PM 40.1097 -112.0486 24° Northeast 365 420 14,700 -828 Descending Salt Lake Center
Wed 10:38:34 PM 40.1944 -112.0089 20° North 326 375 13,400 -1,579 Descending Salt Lake Center
Wed 10:38:49 PM 40.2186 -111.9897 31° Northeast 316 364 12,700 -2,100 Descending Salt Lake Center
Wed 10:39:34 PM 40.2828 -111.9650 16° North 315 362 11,300 -1,645 Descending Salt Lake Center
Wed 10:39:51 PM 40.3006 -111.9517 30° Northeast 312 359 11,000 -1,279 Descending Salt Lake Center
Wed 10:40:35 PM 40.3644 -111.9542 358° North 298 343 10,000 -984 Descending Salt Lake Center
Wed 10:40:52 PM 40.3819 -111.9506 North 296 341 10,000  Level Salt Lake Center
Wed 10:41:42 PM 40.4394 -111.9628 351° North 245 282 10,000 -121 Level Salt Lake Center
Wed 10:42:31 PM 40.4942 -111.9667 357° North 232 267 9,800 -405 Descending Salt Lake Center
Wed 10:42:56 PM 40.5128 -111.9647 North 230 265 9,500 -1,200 Descending Salt Lake Center
Wed 10:43:26 PM 40.5511 -111.9728 351° North 227 261 8,700 -1,279 Descending Salt Lake Center
Wed 10:43:57 PM 40.5747 -111.9719 North 224 258 8,200 -1,182 Descending Salt Lake Center
Wed 10:44:32 PM 40.6150 -111.9794 352° North 214 246 7,400 -1,371 Descending Salt Lake Center

Login

Don't have an account? Register now (free) for customized features, flight alerts, and more!